NCAR-RAP Real-Time Weather Data

Output produced by METARs form (17 October 2018  16:44 UTC)
found at http://weather.rap.ucar.edu/surface/
 
Conditions at: KTPA observed 17 October 2018  15:53 UTC
Temperature: 30.6°C (87°F)
Dewpoint: 22.2°C (72°F) [RH = 61%]
Pressure (altimeter): 30.15 inches Hg (1021.1 mb)
[Sea-level pressure: 1021.0 mb]
Winds: variable direction winds at 6 MPH (5 knots; 2.6 m/s)
Visibility: 10 or more miles (16+ km)
Ceiling: at least 12,000 feet AGL
Clouds: few clouds at 3300 feet AGL
Present Weather: no significant weather observed at this time
KTPA 171553Z VRB05KT 10SM FEW033 31/22 A3015 RMK AO2 SLP210 T03060222

Conditions at: KTPA observed 17 October 2018  14:53 UTC
Temperature: 30.0°C (86°F)
Dewpoint: 22.2°C (72°F) [RH = 63%]
Pressure (altimeter): 30.15 inches Hg (1021.1 mb)
[Sea-level pressure: 1021.0 mb]
Winds: variable direction winds at 7 MPH (6 knots; 3.1 m/s)
Visibility: 10 or more miles (16+ km)
Ceiling: at least 12,000 feet AGL
Clouds: few clouds at 3000 feet AGL
Present Weather: no significant weather observed at this time
KTPA 171453Z VRB06KT 10SM FEW030 30/22 A3015 RMK AO2 SLP210 T03000222 51009

Conditions at: KTPA observed 17 October 2018  13:53 UTC
Temperature: 27.8°C (82°F)
Dewpoint: 22.8°C (73°F) [RH = 74%]
Pressure (altimeter): 30.15 inches Hg (1021.1 mb)
[Sea-level pressure: 1020.8 mb]
Winds: from the ESE (120 degrees) at 10 MPH (9 knots; 4.7 m/s)
Visibility: 10 or more miles (16+ km)
Ceiling: at least 12,000 feet AGL
Clouds: few clouds at 1800 feet AGL
Present Weather: no significant weather observed at this time
KTPA 171353Z 12009KT 10SM FEW018 28/23 A3015 RMK AO2 SLP208 T02780228

Conditions at: KTPA observed 17 October 2018  12:53 UTC
Temperature: 26.7°C (80°F)
Dewpoint: 23.3°C (74°F) [RH = 82%]
Pressure (altimeter): 30.14 inches Hg (1020.7 mb)
[Sea-level pressure: 1020.6 mb]
Winds: variable direction winds at 5 MPH (4 knots; 2.1 m/s)
Visibility: 10 or more miles (16+ km)
Ceiling: at least 12,000 feet AGL
Clouds: few clouds at 25000 feet AGL
Present Weather: no significant weather observed at this time
KTPA 171253Z VRB04KT 10SM FEW250 27/23 A3014 RMK AO2 SLP206 T02670233

Conditions at: KTPA observed 17 October 2018  11:53 UTC
Temperature: 25.0°C (77°F)
Dewpoint: 22.8°C (73°F) [RH = 88%]
Pressure (altimeter): 30.13 inches Hg (1020.4 mb)
[Sea-level pressure: 1020.1 mb]
Winds: from the ENE (60 degrees) at 3 MPH (3 knots; 1.6 m/s)
Visibility: 10 or more miles (16+ km)
Ceiling: at least 12,000 feet AGL
Clouds: few clouds at 1500 feet AGL
few clouds at 8000 feet AGL
few clouds at 25000 feet AGL
Present Weather: no significant weather observed at this time
KTPA 171153Z 06003KT 10SM FEW015 FEW080 FEW250 25/23 A3013 RMK AO2 SLP201 T02500228 10267 20250 53014

Conditions at: KTPA observed 17 October 2018  10:53 UTC
Temperature: 25.0°C (77°F)
Dewpoint: 22.2°C (72°F) [RH = 84%]
Pressure (altimeter): 30.11 inches Hg (1019.7 mb)
[Sea-level pressure: 1019.6 mb]
Winds: from the ENE (60 degrees) at 3 MPH (3 knots; 1.6 m/s)
Visibility: 10 or more miles (16+ km)
Ceiling: at least 12,000 feet AGL
Clouds: few clouds at 8000 feet AGL
Present Weather: no significant weather observed at this time
KTPA 171053Z 06003KT 10SM FEW080 25/22 A3011 RMK AO2 SLP196 T02500222

Conditions at: KTPA observed 17 October 2018  09:53 UTC
Temperature: 25.0°C (77°F)
Dewpoint: 22.8°C (73°F) [RH = 88%]
Pressure (altimeter): 30.09 inches Hg (1019.0 mb)
[Sea-level pressure: 1018.9 mb]
Winds: from the ENE (60 degrees) at 5 MPH (4 knots; 2.1 m/s)
Visibility: 10 or more miles (16+ km)
Ceiling: at least 12,000 feet AGL
Clouds: sky clear below 12,000 feet AGL
Present Weather: no significant weather observed at this time
KTPA 170953Z COR 06004KT 10SM CLR 25/23 A3009 RMK AO2 SLP189 T02500228

Conditions at: KTPA observed 17 October 2018  08:53 UTC
Temperature: 25.6°C (78°F)
Dewpoint: 22.8°C (73°F) [RH = 85%]
Pressure (altimeter): 30.09 inches Hg (1019.0 mb)
[Sea-level pressure: 1018.7 mb]
Winds: from the ENE (70 degrees) at 3 MPH (3 knots; 1.6 m/s)
Visibility: 10 or more miles (16+ km)
Ceiling: at least 12,000 feet AGL
Clouds: sky clear below 12,000 feet AGL
Present Weather: no significant weather observed at this time
KTPA 170853Z 07003KT 10SM CLR 26/23 A3009 RMK AO2 SLP187 T02560228 56007

Conditions at: KTPA observed 17 October 2018  07:53 UTC
Temperature: 25.6°C (78°F)
Dewpoint: 22.8°C (73°F) [RH = 85%]
Pressure (altimeter): 30.09 inches Hg (1019.0 mb)
[Sea-level pressure: 1018.8 mb]
Winds: from the ENE (60 degrees) at 3 MPH (3 knots; 1.6 m/s)
Visibility: 10 or more miles (16+ km)
Ceiling: at least 12,000 feet AGL
Clouds: few clouds at 8000 feet AGL
Present Weather: no significant weather observed at this time
KTPA 170753Z 06003KT 10SM FEW080 26/23 A3009 RMK AO2 SLP188 T02560228

Conditions at: KTPA observed 17 October 2018  06:53 UTC
Temperature: 26.1°C (79°F)
Dewpoint: 22.8°C (73°F) [RH = 82%]
Pressure (altimeter): 30.10 inches Hg (1019.4 mb)
[Sea-level pressure: 1019.1 mb]
Winds: from the E (100 degrees) at 5 MPH (4 knots; 2.1 m/s)
Visibility: 10 or more miles (16+ km)
Ceiling: at least 12,000 feet AGL
Clouds: sky clear below 12,000 feet AGL
Present Weather: no significant weather observed at this time
KTPA 170653Z 10004KT 10SM CLR 26/23 A3010 RMK AO2 SLP191 T02610228

Conditions at: KTPA observed 17 October 2018  05:53 UTC
Temperature: 26.7°C (80°F)
Dewpoint: 22.8°C (73°F) [RH = 79%]
Pressure (altimeter): 30.11 inches Hg (1019.7 mb)
[Sea-level pressure: 1019.4 mb]
Winds: from the ESE (120 degrees) at 5 MPH (4 knots; 2.1 m/s)
Visibility: 10 or more miles (16+ km)
Ceiling: at least 12,000 feet AGL
Clouds: sky clear below 12,000 feet AGL
Present Weather: no significant weather observed at this time
KTPA 170553Z 12004KT 10SM CLR 27/23 A3011 RMK AO2 SLP194 60000 T02670228 10294 20267 58002

Conditions at: KTPA observed 17 October 2018  03:53 UTC
Temperature: 28.3°C (83°F)
Dewpoint: 22.2°C (72°F) [RH = 70%]
Pressure (altimeter): 30.12 inches Hg (1020.1 mb)
[Sea-level pressure: 1019.9 mb]
Winds: variable direction winds at 3 MPH (3 knots; 1.6 m/s)
Visibility: 10 or more miles (16+ km)
Ceiling: at least 12,000 feet AGL
Clouds: sky clear below 12,000 feet AGL
Present Weather: no significant weather observed at this time
KTPA 170353Z VRB03KT 10SM CLR 28/22 A3012 RMK AO2 SLP199 T02830222

Conditions at: KTPA observed 17 October 2018  02:53 UTC
Temperature: 28.9°C (84°F)
Dewpoint: 22.2°C (72°F) [RH = 67%]
Pressure (altimeter): 30.11 inches Hg (1019.7 mb)
[Sea-level pressure: 1019.6 mb]
Winds: from the SE (130 degrees) at 6 MPH (5 knots; 2.6 m/s)
Visibility: 10 or more miles (16+ km)
Ceiling: at least 12,000 feet AGL
Clouds: scattered clouds at 5500 feet AGL
Present Weather: no significant weather observed at this time
KTPA 170253Z 13005KT 10SM SCT055 29/22 A3011 RMK AO2 SLP196 60000 T02890222 51018

Conditions at: KTPA observed 17 October 2018  01:53 UTC
Temperature: 27.8°C (82°F)
Dewpoint: 24.4°C (76°F) [RH = 82%]
Pressure (altimeter): 30.10 inches Hg (1019.4 mb)
[Sea-level pressure: 1019.2 mb]
Winds: from the N (360 degrees) at 5 MPH (4 knots; 2.1 m/s)
Visibility: 10 or more miles (16+ km)
Ceiling: 5000 feet AGL
Clouds: broken clouds at 5000 feet AGL
broken clouds at 8000 feet AGL
Present Weather: no significant weather observed at this time
KTPA 170153Z 36004KT 10SM BKN050 BKN080 28/24 A3010 RMK AO2 SLP192 T02780244

Conditions at: KTPA observed 17 October 2018  00:53 UTC
Temperature: 28.3°C (83°F)
Dewpoint: 24.4°C (76°F) [RH = 79%]
Pressure (altimeter): 30.09 inches Hg (1019.0 mb)
[Sea-level pressure: 1018.8 mb]
Winds: from the N (360 degrees) at 8 MPH (7 knots; 3.6 m/s)
Visibility: 10 or more miles (16+ km)
Ceiling: 5000 feet AGL
Clouds: broken clouds at 5000 feet AGL
broken clouds at 10000 feet AGL
Present Weather: no significant weather observed at this time
KTPA 170053Z 36007KT 10SM BKN050 BKN100 28/24 A3009 RMK AO2 RAB41E52 SLP188 P0000 T02830244

Conditions at: KTPA observed 16 October 2018  23:53 UTC
Temperature: 29.4°C (85°F)
Dewpoint: 23.9°C (75°F) [RH = 72%]
Pressure (altimeter): 30.06 inches Hg (1018.0 mb)
[Sea-level pressure: 1017.8 mb]
Winds: from the NNW (340 degrees) at 8 MPH (7 knots; 3.6 m/s)
Visibility: 10 or more miles (16+ km)
Ceiling: at least 12,000 feet AGL
Clouds: scattered clouds at 5500 feet AGL
Present Weather: no significant weather observed at this time
KTPA 162353Z 34007KT 10SM SCT055 29/24 A3006 RMK AO2 SLP178 T02940239 10339 20294 53010

Conditions at: KTPA observed 16 October 2018  22:53 UTC
Temperature: 32.2°C (90°F)
Dewpoint: 20.0°C (68°F) [RH = 49%]
Pressure (altimeter): 30.04 inches Hg (1017.4 mb)
[Sea-level pressure: 1017.2 mb]
Winds: from the SSE (150 degrees) at 6 MPH (5 knots; 2.6 m/s)
Visibility: 10 or more miles (16+ km)
Ceiling: at least 12,000 feet AGL
Clouds: scattered clouds at 5500 feet AGL
Present Weather: no significant weather observed at this time
KTPA 162253Z 15005KT 10SM SCT055 32/20 A3004 RMK AO2 SLP172 T03220200

Conditions at: KTPA observed 16 October 2018  21:53 UTC
Temperature: 33.3°C (92°F)
Dewpoint: 19.4°C (67°F) [RH = 44%]
Pressure (altimeter): 30.03 inches Hg (1017.0 mb)
[Sea-level pressure: 1016.8 mb]
Winds: variable direction winds at 5 MPH (4 knots; 2.1 m/s)
Visibility: 10 or more miles (16+ km)
Ceiling: at least 12,000 feet AGL
Clouds: scattered clouds at 5500 feet AGL
Present Weather: no significant weather observed at this time
KTPA 162153Z VRB04KT 10SM SCT055 33/19 A3003 RMK AO2 SLP168 T03330194

Conditions at: KTPA observed 16 October 2018  20:53 UTC
Temperature: 33.3°C (92°F)
Dewpoint: 20.6°C (69°F) [RH = 47%]
Pressure (altimeter): 30.03 inches Hg (1017.0 mb)
[Sea-level pressure: 1016.8 mb]
Winds: from the SE (130 degrees) at 7 MPH (6 knots; 3.1 m/s)
Visibility: 10 or more miles (16+ km)
Ceiling: at least 12,000 feet AGL
Clouds: scattered clouds at 5000 feet AGL
Present Weather: no significant weather observed at this time
KTPA 162053Z 13006KT 10SM SCT050 33/21 A3003 RMK AO2 SLP168 T03330206 56010

Conditions at: KTPA observed 16 October 2018  19:53 UTC
Temperature: 33.9°C (93°F)
Dewpoint: 21.1°C (70°F) [RH = 47%]
Pressure (altimeter): 30.03 inches Hg (1017.0 mb)
[Sea-level pressure: 1016.9 mb]
Winds: variable direction winds at 7 MPH (6 knots; 3.1 m/s)
Visibility: 10 or more miles (16+ km)
Ceiling: at least 12,000 feet AGL
Clouds: scattered clouds at 5000 feet AGL
Present Weather: no significant weather observed at this time
KTPA 161953Z VRB06KT 10SM SCT050 34/21 A3003 RMK AO2 SLP169 T03390211

Conditions at: KTPA observed 16 October 2018  18:53 UTC
Temperature: 33.3°C (92°F)
Dewpoint: 21.1°C (70°F) [RH = 49%]
Pressure (altimeter): 30.04 inches Hg (1017.4 mb)
[Sea-level pressure: 1017.2 mb]
Winds: variable direction winds at 6 MPH (5 knots; 2.6 m/s)
Visibility: 10 or more miles (16+ km)
Ceiling: at least 12,000 feet AGL
Clouds: scattered clouds at 4700 feet AGL
Present Weather: no significant weather observed at this time
KTPA 161853Z VRB05KT 10SM SCT047 33/21 A3004 RMK AO2 SLP172 T03330211

Conditions at: KTPA observed 16 October 2018  17:53 UTC
Temperature: 32.8°C (91°F)
Dewpoint: 21.7°C (71°F) [RH = 52%]
Pressure (altimeter): 30.06 inches Hg (1018.0 mb)
[Sea-level pressure: 1017.8 mb]
Winds: from the SSE (150 degrees) at 8 MPH (7 knots; 3.6 m/s)
Visibility: 10 or more miles (16+ km)
Ceiling: at least 12,000 feet AGL
Clouds: few clouds at 4000 feet AGL
Present Weather: no significant weather observed at this time
KTPA 161753Z 15007KT 10SM FEW040 33/22 A3006 RMK AO2 SLP178 T03280217 10328 20256 58022

Conditions at: KTPA observed 16 October 2018  16:53 UTC
Temperature: 32.8°C (91°F)
Dewpoint: 22.2°C (72°F) [RH = 54%]
Pressure (altimeter): 30.08 inches Hg (1018.7 mb)
[Sea-level pressure: 1018.6 mb]
Winds: missing
Visibility: 10 or more miles (16+ km)
Ceiling: at least 12,000 feet AGL
Clouds: few clouds at 3500 feet AGL
Present Weather: no significant weather observed at this time
KTPA 161653Z COR 10SM FEW035 33/22 A3008 RMK AO2 SLP186 T03280222